createdAt,value
2023-03-26T00:01:23.818Z,100895.31
2023-03-26T00:04:01.270Z,100894.47
2023-03-26T00:06:34.966Z,100898.97
2023-03-26T00:09:01.506Z,100897.28
2023-03-26T00:11:29.592Z,100888.47
2023-03-26T00:13:57.818Z,100890.28
2023-03-26T00:16:27.132Z,100891.13
2023-03-26T00:18:54.013Z,100890.28
2023-03-26T00:21:27.895Z,100887.78
2023-03-26T00:24:00.488Z,100891.28
2023-03-26T00:26:29.636Z,100885.97
2023-03-26T00:28:57.595Z,100878.13
2023-03-26T00:31:24.558Z,100873.78
2023-03-26T00:33:55.491Z,100878.97
2023-03-26T00:36:25.432Z,100873.78
2023-03-26T00:38:53.988Z,100882.59
2023-03-26T00:41:25.145Z,100870.34
2023-03-26T00:43:56.292Z,100868.47
2023-03-26T00:46:27.683Z,100859.84
2023-03-26T00:48:54.419Z,100866.97
2023-03-26T00:51:21.886Z,100866.84
2023-03-26T00:53:50.060Z,100863.34
2023-03-26T00:56:17.949Z,100858.88
2023-03-26T00:58:46.180Z,100864.19
2023-03-26T01:01:15.818Z,100864.31
2023-03-26T01:03:53.229Z,100869.50
2023-03-26T01:06:28.526Z,100864.19
2023-03-26T01:09:00.391Z,100866.97
2023-03-26T01:11:30.801Z,100862.66
2023-03-26T01:14:01.063Z,100860.84
2023-03-26T01:16:34.081Z,100856.50
2023-03-26T01:19:00.884Z,100854.69
2023-03-26T01:21:30.096Z,100849.38
2023-03-26T01:23:59.705Z,100842.38
2023-03-26T01:26:40.647Z,100839.72
2023-03-26T01:29:16.369Z,100830.91
2023-03-26T01:31:55.369Z,100831.88
2023-03-26T01:34:33.830Z,100833.72
2023-03-26T01:37:15.168Z,100821.41
2023-03-26T01:39:53.357Z,100824.06
2023-03-26T01:42:29.118Z,100812.06
2023-03-26T01:45:15.932Z,100815.41
2023-03-26T01:47:44.158Z,100805.91
2023-03-26T01:50:11.073Z,100802.25
2023-03-26T01:52:38.032Z,100802.25
2023-03-26T01:55:06.877Z,100790.66
2023-03-26T01:57:44.542Z,100791.63
2023-03-26T02:00:33.296Z,100785.47
2023-03-26T02:03:17.765Z,100776.69
2023-03-26T02:05:53.330Z,100775.19
2023-03-26T02:08:38.125Z,100772.34
2023-03-26T02:11:13.579Z,100768.88
2023-03-26T02:13:42.258Z,100765.38
2023-03-26T02:16:14.294Z,100762.72
2023-03-26T02:18:41.245Z,100761.19
2023-03-26T02:21:12.293Z,100758.41
2023-03-26T02:23:46.936Z,100758.41
2023-03-26T02:26:16.500Z,100751.69
2023-03-26T02:28:43.062Z,100760.50
2023-03-26T02:31:13.916Z,100758.84
2023-03-26T02:33:40.764Z,100764.00
2023-03-26T02:36:08.578Z,100757.00
2023-03-26T02:38:35.434Z,100753.38
2023-03-26T02:41:02.921Z,100758.84
2023-03-26T02:43:29.752Z,100755.47
2023-03-26T02:45:57.001Z,100751.84
2023-03-26T02:48:23.959Z,100744.03
2023-03-26T02:50:54.161Z,100728.78
2023-03-26T02:53:21.947Z,100724.75
2023-03-26T02:55:48.583Z,100722.91
2023-03-26T02:58:17.983Z,100731.59
2023-03-26T03:00:46.824Z,100716.78
2023-03-26T03:03:14.104Z,100711.31
2023-03-26T03:05:43.319Z,100714.81
2023-03-26T03:08:10.174Z,100705.16
2023-03-26T03:10:37.769Z,100706.00
2023-03-26T03:13:07.742Z,100696.50
2023-03-26T03:15:35.121Z,100702.66
2023-03-26T03:18:02.144Z,100713.28
2023-03-26T03:20:30.398Z,100709.78
2023-03-26T03:22:57.101Z,100703.09
2023-03-26T03:25:26.004Z,100711.59
2023-03-26T03:27:53.991Z,100703.97
2023-03-26T03:30:20.747Z,100699.16
2023-03-26T03:32:47.727Z,100695.84
2023-03-26T03:35:14.314Z,100688.88
2023-03-26T03:37:41.038Z,100694.84
2023-03-26T03:40:10.899Z,100683.53
2023-03-26T03:42:38.437Z,100683.53
2023-03-26T03:45:06.577Z,100687.16
2023-03-26T03:47:33.588Z,100681.84
2023-03-26T03:50:00.248Z,100671.50
2023-03-26T03:52:28.164Z,100677.41
2023-03-26T03:54:57.631Z,100665.22
2023-03-26T03:57:24.242Z,100666.34
2023-03-26T03:59:50.829Z,100667.88
2023-03-26T04:02:26.425Z,100667.19
2023-03-26T04:04:53.421Z,100673.19
2023-03-26T04:07:20.496Z,100663.00
2023-03-26T04:09:47.037Z,100660.34
2023-03-26T04:12:13.574Z,100661.88
2023-03-26T04:14:40.336Z,100657.53
2023-03-26T04:17:06.933Z,100668.16
2023-03-26T04:19:33.604Z,100663.69
2023-03-26T04:22:03.101Z,100661.19
2023-03-26T04:24:29.988Z,100662.03
2023-03-26T04:27:04.167Z,100659.50
2023-03-26T04:29:34.677Z,100663.16
2023-03-26T04:32:07.080Z,100657.97
2023-03-26T04:34:34.504Z,100658.69
2023-03-26T04:37:02.711Z,100650.72
2023-03-26T04:39:29.447Z,100649.19
2023-03-26T04:41:57.877Z,100637.72
2023-03-26T04:44:24.640Z,100644.72
2023-03-26T04:46:53.017Z,100628.94
2023-03-26T04:49:20.006Z,100629.94
2023-03-26T04:51:47.406Z,100618.47
2023-03-26T04:54:16.393Z,100625.75
2023-03-26T04:57:00.163Z,100619.13
2023-03-26T04:59:30.468Z,100617.50
2023-03-26T05:01:59.920Z,100612.34
2023-03-26T05:04:26.994Z,100615.69
2023-03-26T05:06:53.903Z,100609.53
2023-03-26T05:09:21.269Z,100609.34
2023-03-26T05:11:48.573Z,100607.72
2023-03-26T05:14:15.258Z,100605.06
2023-03-26T05:16:42.546Z,100609.34
2023-03-26T05:19:09.123Z,100605.06
2023-03-26T05:21:36.367Z,100604.03
2023-03-26T05:24:02.921Z,100607.53
2023-03-26T05:26:29.882Z,100603.19
2023-03-26T05:28:56.920Z,100600.56
2023-03-26T05:31:24.017Z,100601.38
2023-03-26T05:33:50.696Z,100592.75
2023-03-26T05:36:17.375Z,100594.44
2023-03-26T05:38:47.713Z,100598.72
2023-03-26T05:41:14.352Z,100587.59
2023-03-26T05:43:40.924Z,100590.94
2023-03-26T05:46:08.075Z,100582.97
2023-03-26T05:48:34.912Z,100586.47
2023-03-26T05:51:01.640Z,100581.44
2023-03-26T05:53:28.265Z,100574.31
2023-03-26T05:55:58.169Z,100568.03
2023-03-26T05:58:30.417Z,100574.00
2023-03-26T06:01:17.145Z,100573.50
2023-03-26T06:03:45.774Z,100573.34
2023-03-26T06:06:17.656Z,100573.19
2023-03-26T06:08:48.938Z,100570.53
2023-03-26T06:11:29.403Z,100553.09
2023-03-26T06:13:55.960Z,100563.56
2023-03-26T06:16:27.142Z,100553.22
2023-03-26T06:18:56.685Z,100556.56
2023-03-26T06:21:25.703Z,100548.59
2023-03-26T06:23:53.017Z,100544.78
2023-03-26T06:26:20.051Z,100536.16
2023-03-26T06:28:46.614Z,100546.47
2023-03-26T06:31:13.342Z,100541.31
2023-03-26T06:33:39.911Z,100535.84
2023-03-26T06:36:06.832Z,100539.31
2023-03-26T06:38:33.420Z,100527.22
2023-03-26T06:41:04.246Z,100527.38
2023-03-26T06:43:33.717Z,100524.72
2023-03-26T06:46:04.112Z,100530.53
2023-03-26T06:48:30.961Z,100525.53
2023-03-26T06:50:57.808Z,100521.72
2023-03-26T06:53:24.412Z,100519.06
2023-03-26T06:55:52.369Z,100521.72
2023-03-26T06:58:18.908Z,100523.94
2023-03-26T07:00:45.486Z,100525.75
2023-03-26T07:03:12.042Z,100531.59
2023-03-26T07:05:41.185Z,100514.78
2023-03-26T07:08:07.778Z,100530.63
2023-03-26T07:10:34.352Z,100525.31
2023-03-26T07:13:01.080Z,100522.50
2023-03-26T07:15:28.907Z,100533.66
2023-03-26T07:17:56.351Z,100529.19
2023-03-26T07:20:23.772Z,100523.88
2023-03-26T07:22:51.050Z,100524.84
2023-03-26T07:25:19.157Z,100523.56
2023-03-26T07:28:03.714Z,100524.25
2023-03-26T07:31:16.348Z,100533.91
2023-03-26T07:34:12.059Z,100527.75
2023-03-26T07:36:50.727Z,100527.75
2023-03-26T07:39:36.474Z,100530.09
2023-03-26T07:42:17.136Z,100522.28
2023-03-26T07:44:53.919Z,100531.63
2023-03-26T07:47:28.842Z,100527.44
2023-03-26T07:49:57.911Z,100523.94
2023-03-26T07:52:26.523Z,100527.16
2023-03-26T07:54:53.678Z,100521.16
2023-03-26T07:57:36.014Z,100522.47
2023-03-26T08:00:25.963Z,100522.47
2023-03-26T08:03:13.897Z,100523.31
2023-03-26T08:05:48.926Z,100517.31
2023-03-26T08:08:34.386Z,100522.34
2023-03-26T08:11:08.309Z,100515.19
2023-03-26T08:13:40.598Z,100523.31
2023-03-26T08:16:45.950Z,100528.78
2023-03-26T08:19:16.691Z,100522.81
2023-03-26T08:21:54.136Z,100526.47
2023-03-26T08:24:50.089Z,100519.78
2023-03-26T08:27:34.547Z,100524.41
2023-03-26T08:30:10.783Z,100528.03
2023-03-26T08:32:37.710Z,100527.34
2023-03-26T08:35:05.057Z,100526.72
2023-03-26T08:37:31.688Z,100521.66
2023-03-26T08:39:58.204Z,100523.38
2023-03-26T08:42:43.399Z,100529.50
2023-03-26T08:45:31.415Z,100529.78
2023-03-26T08:48:31.075Z,100525.44
2023-03-26T08:51:28.403Z,100532.44
2023-03-26T08:54:13.729Z,100536.91
2023-03-26T08:56:58.467Z,100536.91
2023-03-26T09:00:13.656Z,100533.28
2023-03-26T09:03:03.261Z,100534.81
2023-03-26T09:05:56.076Z,100530.25
2023-03-26T09:08:31.891Z,100528.63
2023-03-26T09:11:04.634Z,100534.63
2023-03-26T09:13:45.301Z,100536.00
2023-03-26T09:16:41.467Z,100526.34
2023-03-26T09:19:29.096Z,100534.03
2023-03-26T09:22:23.068Z,100531.22
2023-03-26T09:25:08.498Z,100541.84
2023-03-26T09:28:05.919Z,100542.50
2023-03-26T09:30:57.285Z,100544.31
2023-03-26T09:33:28.005Z,100545.16
2023-03-26T09:36:33.269Z,100544.31
2023-03-26T09:39:10.191Z,100533.03
2023-03-26T09:41:39.684Z,100544.31
2023-03-26T09:44:43.303Z,100545.34
2023-03-26T09:47:47.458Z,100553.31
2023-03-26T09:50:42.461Z,100548.97
2023-03-26T09:53:28.524Z,100549.97
2023-03-26T09:56:16.174Z,100561.28
2023-03-26T09:58:51.640Z,100560.44
2023-03-26T10:01:35.774Z,100555.28
2023-03-26T10:04:23.916Z,100557.78
2023-03-26T10:07:04.046Z,100564.09
2023-03-26T10:10:13.814Z,100564.09
2023-03-26T10:12:46.215Z,100570.09
2023-03-26T10:15:31.178Z,100570.09
2023-03-26T10:18:27.698Z,100578.06
2023-03-26T10:21:04.498Z,100573.41
2023-03-26T10:23:48.971Z,100573.41
2023-03-26T10:26:36.590Z,100569.75
2023-03-26T10:29:32.157Z,100568.75
2023-03-26T10:32:37.916Z,100576.72
2023-03-26T10:35:16.778Z,100576.59
2023-03-26T10:38:26.369Z,100582.72
2023-03-26T10:41:04.786Z,100579.09
2023-03-26T10:44:05.175Z,100593.22
2023-03-26T10:46:45.312Z,100583.41
2023-03-26T10:49:37.630Z,100583.41
2023-03-26T10:57:38.487Z,100594.88
2023-03-26T11:34:27.534Z,100615.69
2023-03-26T11:36:57.527Z,100619.16
2023-03-26T11:39:28.356Z,100617.88
2023-03-26T11:42:15.981Z,100625.84
2023-03-26T11:44:56.065Z,100626.69
2023-03-26T11:47:35.758Z,100616.19
2023-03-26T12:34:34.792Z,100664.81
2023-03-26T12:37:03.692Z,100669.94
2023-03-26T12:40:07.011Z,100674.28
2023-03-26T12:44:47.535Z,100682.94
2023-03-26T12:45:41.484Z,100679.44
2023-03-26T12:48:12.940Z,100682.09
2023-03-26T12:50:50.227Z,100688.94
2023-03-26T12:53:27.466Z,100686.97
2023-03-26T12:55:57.164Z,100695.78
2023-03-26T12:59:00.821Z,100691.16
2023-03-26T13:01:51.883Z,100686.66
2023-03-26T13:04:18.425Z,100691.00
2023-03-26T13:07:00.250Z,100690.16
2023-03-26T13:12:52.674Z,100697.81
2023-03-26T13:15:33.055Z,100710.13
2023-03-26T13:18:13.359Z,100706.47
2023-03-26T13:21:09.420Z,100714.28
2023-03-26T13:23:54.813Z,100713.47
2023-03-26T13:26:49.012Z,100728.44
2023-03-26T13:29:34.160Z,100736.41
2023-03-26T13:32:15.992Z,100740.72
2023-03-26T13:34:55.742Z,100726.44
2023-03-26T13:37:33.849Z,100742.09
2023-03-26T13:40:14.161Z,100740.78
2023-03-26T13:42:40.709Z,100746.78
2023-03-26T13:45:07.391Z,100744.00
2023-03-26T13:47:38.248Z,100746.50
2023-03-26T13:50:15.956Z,100737.69
2023-03-26T13:52:42.495Z,100750.81
2023-03-26T13:55:35.985Z,100750.81
2023-03-26T13:58:23.826Z,100748.16
2023-03-26T14:01:09.353Z,100754.31
2023-03-26T14:04:00.549Z,100764.13
2023-03-26T14:07:05.550Z,100766.78
2023-03-26T14:09:48.213Z,100755.59
2023-03-26T14:12:49.028Z,100772.09
2023-03-26T14:15:25.125Z,100773.94
2023-03-26T14:17:54.288Z,100773.94
2023-03-26T14:20:24.056Z,100788.06
2023-03-26T14:23:21.245Z,100788.91
2023-03-26T14:25:57.628Z,100785.41
2023-03-26T14:28:48.880Z,100791.56
2023-03-26T14:31:21.021Z,100794.38
2023-03-26T14:33:58.077Z,100806.69
2023-03-26T14:36:33.563Z,100803.19
2023-03-26T14:39:00.322Z,100805.84
2023-03-26T14:41:41.045Z,100812.00
2023-03-26T14:44:25.572Z,100810.19
2023-03-26T14:47:15.852Z,100812.00
2023-03-26T14:50:26.518Z,100824.63
2023-03-26T14:53:01.388Z,100836.09
2023-03-26T14:55:38.267Z,100830.78
2023-03-26T14:58:29.724Z,100830.78
2023-03-26T15:01:23.448Z,100835.25
2023-03-26T15:04:25.961Z,100845.88
2023-03-26T15:07:07.842Z,100843.22
2023-03-26T15:09:49.869Z,100853.88
2023-03-26T15:12:30.487Z,100852.03
2023-03-26T15:15:22.008Z,100855.69
2023-03-26T15:18:36.728Z,100861.00
2023-03-26T15:21:31.202Z,100865.34
2023-03-26T15:24:31.738Z,100876.13
2023-03-26T15:27:26.833Z,100879.63
2023-03-26T15:30:30.241Z,100879.63
2023-03-26T15:33:18.590Z,100893.75
2023-03-26T15:36:10.369Z,100891.09
2023-03-26T15:39:14.859Z,100896.41
2023-03-26T15:42:09.230Z,100904.41
2023-03-26T15:44:43.774Z,100912.38
2023-03-26T15:47:17.751Z,100915.03
2023-03-26T15:50:00.568Z,100931.84
2023-03-26T15:52:38.658Z,100922.88
2023-03-26T15:55:28.950Z,100931.16
2023-03-26T15:58:01.459Z,100935.34
2023-03-26T16:00:31.934Z,100939.97
2023-03-26T16:03:10.811Z,100945.97
2023-03-26T16:05:54.024Z,100941.78
2023-03-26T16:08:28.204Z,100949.47
2023-03-26T16:10:57.525Z,100963.59
2023-03-26T16:14:02.886Z,100968.09
2023-03-26T16:17:17.515Z,100973.56
2023-03-26T16:19:52.116Z,100981.41
2023-03-26T16:22:42.991Z,100985.03
2023-03-26T16:25:28.870Z,100987.00
2023-03-26T16:28:40.730Z,100990.50
2023-03-26T16:31:37.653Z,101006.47
2023-03-26T16:34:07.069Z,101010.09
2023-03-26T16:36:34.843Z,101015.41
2023-03-26T16:39:04.790Z,101023.41
2023-03-26T16:41:33.967Z,101028.03
2023-03-26T16:44:13.872Z,101024.38
2023-03-26T16:47:00.931Z,101043.00
2023-03-26T16:50:08.802Z,101047.47
2023-03-26T16:52:47.743Z,101041.47
2023-03-26T16:55:41.133Z,101044.97
2023-03-26T16:58:10.960Z,101056.44
2023-03-26T17:00:57.165Z,101060.25
2023-03-26T17:03:35.612Z,101072.56
2023-03-26T17:06:38.047Z,101068.50
2023-03-26T17:09:46.627Z,101080.84
2023-03-26T17:12:43.005Z,101086.28
2023-03-26T17:15:34.258Z,101093.28
2023-03-26T17:18:30.975Z,101095.13
2023-03-26T17:21:49.943Z,101110.94
2023-03-26T17:24:26.168Z,101104.75
2023-03-26T17:27:07.458Z,101117.38
2023-03-26T17:30:22.192Z,101121.56
2023-03-26T17:33:05.980Z,101119.03
2023-03-26T17:35:45.669Z,101126.03
2023-03-26T17:38:18.190Z,101127.88
2023-03-26T17:40:55.050Z,101134.16
2023-03-26T17:43:43.453Z,101140.31
2023-03-26T17:46:17.826Z,101142.97
2023-03-26T17:48:49.350Z,101154.47
2023-03-26T17:51:38.857Z,101155.44
2023-03-26T17:54:24.140Z,101159.91
2023-03-26T17:56:53.178Z,101163.56
2023-03-26T17:59:25.196Z,101170.84
2023-03-26T18:01:55.927Z,101176.00
2023-03-26T18:04:32.888Z,101184.84
2023-03-26T18:06:59.407Z,101191.28
2023-03-26T18:09:38.041Z,101201.75
2023-03-26T18:12:29.594Z,101199.25
2023-03-26T18:15:19.172Z,101209.88
2023-03-26T18:17:47.576Z,101214.50
2023-03-26T18:20:26.916Z,101215.47
2023-03-26T18:22:53.646Z,101218.97
2023-03-26T18:25:33.664Z,101219.97
2023-03-26T18:28:02.418Z,101225.44
2023-03-26T18:30:29.546Z,101228.38
2023-03-26T18:33:03.393Z,101248.38
2023-03-26T18:35:50.180Z,101250.22
2023-03-26T18:38:36.817Z,101251.47
2023-03-26T18:41:15.597Z,101252.59
2023-03-26T18:43:44.032Z,101262.38
2023-03-26T18:46:13.822Z,101269.25
2023-03-26T18:48:41.087Z,101283.38
2023-03-26T18:51:08.087Z,101288.69
2023-03-26T18:53:39.395Z,101280.16
2023-03-26T18:56:24.906Z,101287.16
2023-03-26T18:58:52.233Z,101293.56
2023-03-26T19:01:26.000Z,101299.72
2023-03-26T19:03:54.191Z,101313.03
2023-03-26T19:06:21.775Z,101312.19
2023-03-26T19:08:49.578Z,101316.38
2023-03-26T19:11:17.679Z,101317.50
2023-03-26T19:13:49.733Z,101325.63
2023-03-26T19:16:22.556Z,101335.28
2023-03-26T19:18:50.037Z,101325.63
2023-03-26T19:21:18.115Z,101332.63
2023-03-26T19:23:46.761Z,101335.53
2023-03-26T19:26:14.040Z,101344.38
2023-03-26T19:28:49.065Z,101355.00
2023-03-26T19:31:15.650Z,101358.66
2023-03-26T19:33:44.238Z,101359.06
2023-03-26T19:36:14.345Z,101365.78
2023-03-26T19:38:48.940Z,101368.59
2023-03-26T19:41:33.318Z,101370.28
2023-03-26T19:44:02.926Z,101370.53
2023-03-26T19:46:34.169Z,101378.38
2023-03-26T19:49:53.128Z,101383.00
2023-03-26T19:52:26.827Z,101383.69
2023-03-26T19:54:59.762Z,101390.00
2023-03-26T19:57:32.025Z,101388.56
2023-03-26T19:59:59.691Z,101385.50
2023-03-26T20:02:27.272Z,101401.47
2023-03-26T20:04:53.987Z,101405.94
2023-03-26T20:07:35.335Z,101401.59
2023-03-26T20:10:03.111Z,101405.38
2023-03-26T20:12:29.754Z,101411.38
2023-03-26T20:14:56.338Z,101414.03
2023-03-26T20:17:22.948Z,101423.84
2023-03-26T20:19:49.529Z,101422.16
2023-03-26T20:22:21.802Z,101423.84
2023-03-26T20:24:48.468Z,101426.63
2023-03-26T20:27:15.099Z,101424.94
2023-03-26T20:29:42.330Z,101425.78
2023-03-26T20:32:26.403Z,101426.63
2023-03-26T20:34:54.143Z,101441.75
2023-03-26T20:37:20.710Z,101448.88
2023-03-26T20:39:47.340Z,101454.31
2023-03-26T20:42:15.436Z,101460.47
2023-03-26T20:44:42.907Z,101456.13
2023-03-26T20:47:12.850Z,101466.63
2023-03-26T20:49:40.242Z,101466.75
2023-03-26T20:52:06.926Z,101476.69
2023-03-26T20:54:33.581Z,101475.59
2023-03-26T20:57:00.288Z,101481.16
2023-03-26T20:59:27.937Z,101485.50
2023-03-26T21:01:56.985Z,101489.84
2023-03-26T21:04:26.242Z,101487.47
2023-03-26T21:06:57.550Z,101492.63
2023-03-26T21:09:35.437Z,101495.47
2023-03-26T21:12:09.649Z,101494.63
2023-03-26T21:14:41.267Z,101498.25
2023-03-26T21:17:20.917Z,101500.06
2023-03-26T21:19:49.118Z,101502.59
2023-03-26T21:22:33.248Z,101507.31
2023-03-26T21:25:15.354Z,101516.41
2023-03-26T21:28:06.755Z,101522.22
2023-03-26T21:30:35.054Z,101516.72
2023-03-26T21:33:02.242Z,101524.81
2023-03-26T21:35:29.245Z,101541.63
2023-03-26T21:37:57.654Z,101542.47
2023-03-26T21:40:24.369Z,101538.97
2023-03-26T21:42:52.577Z,101541.63
2023-03-26T21:45:19.800Z,101550.56
2023-03-26T21:47:47.082Z,101562.88
2023-03-26T21:50:17.465Z,101554.19
2023-03-26T21:52:47.318Z,101560.34
2023-03-26T21:55:22.864Z,101562.16
2023-03-26T21:58:12.295Z,101554.47
2023-03-26T22:01:24.549Z,101568.72
2023-03-26T22:03:51.100Z,101573.44
2023-03-26T22:06:25.780Z,101579.84
2023-03-26T22:08:52.587Z,101583.59
2023-03-26T22:11:19.161Z,101587.22
2023-03-26T22:13:45.693Z,101584.84
2023-03-26T22:16:12.426Z,101586.03
2023-03-26T22:18:39.077Z,101587.72
2023-03-26T22:21:05.941Z,101590.50
2023-03-26T22:23:36.194Z,101594.97
2023-03-26T22:26:04.241Z,101594.13
2023-03-26T22:28:30.897Z,101597.75
2023-03-26T22:30:58.315Z,101594.50
2023-03-26T22:33:25.162Z,101606.94
2023-03-26T22:35:52.412Z,101610.44
2023-03-26T22:38:19.189Z,101615.03
2023-03-26T22:40:45.730Z,101618.81
2023-03-26T22:43:12.372Z,101627.75
2023-03-26T22:45:38.891Z,101629.66
2023-03-26T22:48:05.566Z,101630.63
2023-03-26T22:50:32.845Z,101632.56
2023-03-26T22:52:59.571Z,101642.47
2023-03-26T22:55:28.887Z,101639.94
2023-03-26T22:57:56.919Z,101647.22
2023-03-26T23:00:23.937Z,101644.56
2023-03-26T23:02:50.576Z,101659.88
2023-03-26T23:05:17.715Z,101667.97
2023-03-26T23:07:46.091Z,101658.56
2023-03-26T23:10:13.344Z,101670.88
2023-03-26T23:12:40.332Z,101671.09
2023-03-26T23:15:08.059Z,101685.09
2023-03-26T23:17:36.489Z,101681.88
2023-03-26T23:20:13.893Z,101683.81
2023-03-26T23:22:42.558Z,101687.53
2023-03-26T23:25:10.248Z,101700.22
2023-03-26T23:27:37.262Z,101711.06
2023-03-26T23:30:05.018Z,101708.78
2023-03-26T23:32:31.608Z,101717.13
2023-03-26T23:34:58.353Z,101714.56
2023-03-26T23:37:25.001Z,101720.00
2023-03-26T23:39:52.487Z,101723.63
2023-03-26T23:42:29.463Z,101722.06
2023-03-26T23:44:57.328Z,101722.31
2023-03-26T23:47:24.538Z,101724.97
2023-03-26T23:49:51.214Z,101728.81
2023-03-26T23:52:18.086Z,101729.53
2023-03-26T23:54:45.123Z,101732.31
2023-03-26T23:57:11.922Z,101732.53
2023-03-26T23:59:38.665Z,101742.19
